Time,TemperatureF,DewpointF,PressureIn,WindDirection,WindDirectionDegrees,WindSpeedMPH,WindSpeedGustMPH,Humidity,HourlyPrecipIn,Conditions,Clouds,dailyrainin,SolarRadiationWatts/m^2,SoftwareType,DateUTC
2013-06-12 00:03:00,53.0,49.0,-100.00,NNW,328,0.0,2.0,86,0.00,,,0.00,0.000000,,2013-06-12 05:03:00,
2013-06-12 00:32:00,51.0,48.0,-100.00,NNW,333,0.0,3.0,91,0.00,,,0.00,0.000000,,2013-06-12 05:32:00,
2013-06-12 00:42:00,51.0,48.0,-100.00,NNW,333,0.0,3.0,91,0.00,,,0.00,0.000000,,2013-06-12 05:42:00,
2013-06-12 00:52:00,51.0,48.0,-100.00,NNW,333,0.0,3.0,91,0.00,,,0.00,0.000000,,2013-06-12 05:52:00,
2013-06-12 01:02:00,51.0,48.0,-100.00,NNW,333,0.0,3.0,91,0.00,,,0.00,0.000000,,2013-06-12 06:02:00,
2013-06-12 01:32:00,49.0,47.0,-100.00,NNE,12,0.0,2.0,94,0.00,,,0.00,0.000000,,2013-06-12 06:32:00,
2013-06-12 01:42:00,49.0,47.0,-100.00,NNE,12,0.0,2.0,94,0.00,,,0.00,0.000000,,2013-06-12 06:42:00,
2013-06-12 01:52:00,49.0,47.0,-100.00,NNE,12,0.0,2.0,94,0.00,,,0.00,0.000000,,2013-06-12 06:52:00,
2013-06-12 02:02:00,49.0,47.0,-100.00,NNE,12,0.0,2.0,94,0.00,,,0.00,0.000000,,2013-06-12 07:02:00,
2013-06-12 02:33:00,47.0,46.0,-100.00,East,90,0.0,2.0,95,0.00,,,0.00,0.000000,,2013-06-12 07:33:00,
2013-06-12 02:43:00,47.0,46.0,-100.00,East,90,0.0,2.0,95,0.00,,,0.00,0.000000,,2013-06-12 07:43:00,
2013-06-12 02:53:00,47.0,46.0,-100.00,East,90,0.0,2.0,95,0.00,,,0.00,0.000000,,2013-06-12 07:53:00,
2013-06-12 03:02:00,47.0,46.0,-100.00,East,90,0.0,2.0,95,0.00,,,0.00,0.000000,,2013-06-12 08:02:00,
2013-06-12 03:33:00,46.0,45.0,-100.00,NE,54,0.0,2.0,96,0.00,,,0.00,0.000000,,2013-06-12 08:33:00,
2013-06-12 03:43:00,46.0,45.0,-100.00,NE,54,0.0,2.0,96,0.00,,,0.00,0.000000,,2013-06-12 08:43:00,
2013-06-12 03:53:00,46.0,45.0,-100.00,NE,54,0.0,2.0,96,0.00,,,0.00,0.000000,,2013-06-12 08:53:00,
2013-06-12 04:01:00,46.0,45.0,-100.00,NE,54,0.0,2.0,96,0.00,,,0.00,0.000000,,2013-06-12 09:01:00,
2013-06-12 04:33:00,49.0,48.0,-100.00,NNW,345,0.0,2.0,96,0.00,,,0.00,0.000000,,2013-06-12 09:33:00,
2013-06-12 04:43:00,49.0,48.0,-100.00,NNW,345,0.0,2.0,96,0.00,,,0.00,0.000000,,2013-06-12 09:43:00,
2013-06-12 04:53:00,49.0,48.0,-100.00,NNW,345,0.0,2.0,96,0.00,,,0.00,0.000000,,2013-06-12 09:53:00,
2013-06-12 05:02:00,49.0,48.0,-100.00,NNW,345,0.0,2.0,96,0.00,,,0.00,0.000000,,2013-06-12 10:02:00,
2013-06-12 05:33:00,52.0,49.0,-100.00,NE,42,1.0,4.0,91,0.00,,,0.00,0.000000,,2013-06-12 10:33:00,
2013-06-12 05:43:00,52.0,49.0,-100.00,NE,42,1.0,4.0,91,0.00,,,0.00,0.000000,,2013-06-12 10:43:00,
2013-06-12 05:53:00,52.0,49.0,-100.00,NE,42,1.0,4.0,91,0.00,,,0.00,0.000000,,2013-06-12 10:53:00,
2013-06-12 06:02:00,52.0,49.0,-100.00,NE,42,1.0,4.0,91,0.00,,,0.00,0.000000,,2013-06-12 11:02:00,
2013-06-12 06:33:00,53.0,50.0,-100.00,WSW,239,0.0,2.0,91,0.00,,,0.00,11.000000,,2013-06-12 11:33:00,
2013-06-12 06:43:00,53.0,50.0,-100.00,WSW,239,0.0,2.0,91,0.00,,,0.00,11.000000,,2013-06-12 11:43:00,
2013-06-12 06:53:00,53.0,50.0,-100.00,WSW,239,0.0,2.0,91,0.00,,,0.00,11.000000,,2013-06-12 11:53:00,
2013-06-12 07:02:00,53.0,50.0,-100.00,WSW,239,0.0,2.0,91,0.00,,,0.00,11.000000,,2013-06-12 12:02:00,
2013-06-12 07:33:00,62.0,56.0,-100.00,South,173,0.0,1.0,81,0.00,,,0.00,137.000000,,2013-06-12 12:33:00,
2013-06-12 07:43:00,62.0,56.0,-100.00,South,173,0.0,1.0,81,0.00,,,0.00,137.000000,,2013-06-12 12:43:00,
2013-06-12 07:53:00,62.0,56.0,-100.00,South,173,0.0,1.0,81,0.00,,,0.00,137.000000,,2013-06-12 12:53:00,
2013-06-12 08:01:00,62.0,56.0,-100.00,South,173,0.0,1.0,81,0.00,,,0.00,137.000000,,2013-06-12 13:01:00,
2013-06-12 08:33:00,62.0,55.0,-100.00,West,262,2.0,3.0,78,0.00,,,0.00,120.000000,,2013-06-12 13:33:00,
2013-06-12 08:43:00,62.0,55.0,-100.00,West,262,2.0,3.0,78,0.00,,,0.00,120.000000,,2013-06-12 13:43:00,
2013-06-12 08:53:00,62.0,55.0,-100.00,West,262,2.0,3.0,78,0.00,,,0.00,120.000000,,2013-06-12 13:53:00,
2013-06-12 09:02:00,62.0,55.0,-100.00,West,262,2.0,3.0,78,0.00,,,0.00,120.000000,,2013-06-12 14:02:00,
2013-06-12 09:33:00,68.0,56.0,-100.00,North,352,1.0,4.0,65,0.00,,,0.00,311.000000,,2013-06-12 14:33:00,
2013-06-12 09:43:00,68.0,56.0,-100.00,North,352,1.0,4.0,65,0.00,,,0.00,311.000000,,2013-06-12 14:43:00,
2013-06-12 09:53:00,68.0,56.0,-100.00,North,352,1.0,4.0,65,0.00,,,0.00,311.000000,,2013-06-12 14:53:00,
2013-06-12 10:01:00,68.0,56.0,-100.00,North,352,1.0,4.0,65,0.00,,,0.00,311.000000,,2013-06-12 15:01:00,
2013-06-12 10:33:00,71.0,54.0,-100.00,NE,41,5.0,7.0,55,0.00,,,0.00,497.000000,,2013-06-12 15:33:00,
2013-06-12 10:43:00,71.0,54.0,-100.00,NE,41,5.0,7.0,55,0.00,,,0.00,497.000000,,2013-06-12 15:43:00,
2013-06-12 10:52:00,71.0,54.0,-100.00,NE,41,5.0,7.0,55,0.00,,,0.00,497.000000,,2013-06-12 15:52:00,
2013-06-12 11:01:00,71.0,54.0,-100.00,NE,41,5.0,7.0,55,0.00,,,0.00,497.000000,,2013-06-12 16:01:00,
2013-06-12 11:33:00,70.0,55.0,-100.00,NE,54,5.0,10.0,59,0.00,,,0.00,515.000000,,2013-06-12 16:33:00,
2013-06-12 11:43:00,70.0,55.0,-100.00,NE,54,5.0,10.0,59,0.00,,,0.00,515.000000,,2013-06-12 16:43:00,
2013-06-12 11:53:00,70.0,55.0,-100.00,NE,54,5.0,10.0,59,0.00,,,0.00,515.000000,,2013-06-12 16:53:00,
2013-06-12 12:01:00,70.0,55.0,-100.00,NE,54,5.0,10.0,59,0.00,,,0.00,515.000000,,2013-06-12 17:01:00,
2013-06-12 12:33:00,70.0,55.0,-100.00,North,5,3.0,8.0,59,0.00,,,0.00,236.000000,,2013-06-12 17:33:00,
2013-06-12 12:42:00,70.0,55.0,-100.00,North,5,3.0,8.0,59,0.00,,,0.00,236.000000,,2013-06-12 17:42:00,
2013-06-12 12:52:00,70.0,55.0,-100.00,North,5,3.0,8.0,59,0.00,,,0.00,236.000000,,2013-06-12 17:52:00,
2013-06-12 13:02:00,70.0,55.0,-100.00,North,5,3.0,8.0,59,0.00,,,0.00,236.000000,,2013-06-12 18:02:00,
2013-06-12 13:33:00,71.0,53.0,-100.00,North,359,5.0,9.0,53,0.00,,,0.00,298.000000,,2013-06-12 18:33:00,
2013-06-12 13:43:00,71.0,53.0,-100.00,North,359,5.0,9.0,53,0.00,,,0.00,298.000000,,2013-06-12 18:43:00,
2013-06-12 13:53:00,71.0,53.0,-100.00,North,359,5.0,9.0,53,0.00,,,0.00,298.000000,,2013-06-12 18:53:00,
2013-06-12 14:01:00,71.0,53.0,-100.00,North,359,5.0,9.0,53,0.00,,,0.00,298.000000,,2013-06-12 19:01:00,
2013-06-12 14:32:00,71.0,51.0,-100.00,NNE,25,6.0,15.0,50,0.00,,,0.00,415.000000,,2013-06-12 19:32:00,
2013-06-12 14:43:00,71.0,51.0,-100.00,NNE,25,6.0,15.0,50,0.00,,,0.00,415.000000,,2013-06-12 19:43:00,
2013-06-12 14:52:00,71.0,51.0,-100.00,NNE,25,6.0,15.0,50,0.00,,,0.00,415.000000,,2013-06-12 19:52:00,
2013-06-12 15:01:00,71.0,51.0,-100.00,NNE,25,6.0,15.0,50,0.00,,,0.00,415.000000,,2013-06-12 20:01:00,
2013-06-12 15:33:00,73.0,50.0,-100.00,NNW,347,6.0,12.0,45,0.00,,,-99.99,520.000000,,2013-06-12 20:33:00,
2013-06-12 15:43:00,73.0,50.0,-100.00,NNW,347,6.0,12.0,45,0.00,,,-99.99,520.000000,,2013-06-12 20:43:00,
2013-06-12 15:54:00,73.0,50.0,-100.00,NNW,347,6.0,12.0,45,0.00,,,-99.99,520.000000,,2013-06-12 20:54:00,
2013-06-12 16:01:00,73.0,50.0,-100.00,NNW,347,6.0,12.0,45,0.00,,,-99.99,520.000000,,2013-06-12 21:01:00,
2013-06-12 16:33:00,73.0,49.0,-100.00,North,352,8.0,16.0,43,0.00,,,0.00,403.000000,,2013-06-12 21:33:00,
2013-06-12 16:43:00,73.0,49.0,-100.00,North,352,8.0,16.0,43,0.00,,,0.00,403.000000,,2013-06-12 21:43:00,
2013-06-12 16:53:00,73.0,49.0,-100.00,North,352,8.0,16.0,43,0.00,,,0.00,403.000000,,2013-06-12 21:53:00,
2013-06-12 17:01:00,73.0,49.0,-100.00,North,352,8.0,16.0,43,0.00,,,0.00,403.000000,,2013-06-12 22:01:00,
2013-06-12 17:33:00,71.0,49.0,-100.00,NNW,347,6.0,19.0,45,0.00,,,0.00,343.000000,,2013-06-12 22:33:00,
2013-06-12 17:43:00,71.0,49.0,-100.00,NNW,347,6.0,19.0,45,0.00,,,0.00,343.000000,,2013-06-12 22:43:00,
2013-06-12 17:52:00,71.0,49.0,-100.00,NNW,347,6.0,19.0,45,0.00,,,0.00,343.000000,,2013-06-12 22:52:00,
2013-06-12 18:02:00,71.0,49.0,-100.00,NNW,347,6.0,19.0,45,0.00,,,0.00,343.000000,,2013-06-12 23:02:00,
2013-06-12 18:32:00,72.0,47.0,-100.00,NNW,343,8.0,16.0,41,0.00,,,0.00,362.000000,,2013-06-12 23:32:00,
2013-06-12 18:42:00,72.0,47.0,-100.00,NNW,343,8.0,16.0,41,0.00,,,0.00,362.000000,,2013-06-12 23:42:00,
2013-06-12 18:53:00,72.0,47.0,-100.00,NNW,343,8.0,16.0,41,0.00,,,0.00,362.000000,,2013-06-12 23:53:00,
2013-06-12 19:01:00,72.0,47.0,-100.00,NNW,343,8.0,16.0,41,0.00,,,0.00,362.000000,,2013-06-13 00:01:00,
2013-06-12 19:33:00,70.0,47.0,-100.00,North,5,8.0,19.0,44,0.00,,,0.00,358.000000,,2013-06-13 00:33:00,
2013-06-12 19:43:00,70.0,47.0,-100.00,North,5,8.0,19.0,44,0.00,,,0.00,358.000000,,2013-06-13 00:43:00,
2013-06-12 19:52:00,70.0,47.0,-100.00,North,5,8.0,19.0,44,0.00,,,0.00,358.000000,,2013-06-13 00:52:00,
2013-06-12 20:01:00,70.0,47.0,-100.00,North,5,8.0,19.0,44,0.00,,,0.00,358.000000,,2013-06-13 01:01:00,
2013-06-12 20:33:00,67.0,47.0,-100.00,North,10,6.0,20.0,49,0.00,,,-99.99,120.000000,,2013-06-13 01:33:00,
2013-06-12 20:43:00,67.0,47.0,-100.00,North,10,6.0,20.0,49,0.00,,,-99.99,120.000000,,2013-06-13 01:43:00,
2013-06-12 20:53:00,67.0,47.0,-100.00,North,10,6.0,20.0,49,0.00,,,-99.99,120.000000,,2013-06-13 01:53:00,
2013-06-12 21:02:00,67.0,47.0,-100.00,North,10,6.0,20.0,49,0.00,,,-99.99,120.000000,,2013-06-13 02:02:00,
2013-06-12 21:33:00,64.0,46.0,-100.00,NNW,343,4.0,10.0,52,0.00,,,0.00,63.000000,,2013-06-13 02:33:00,
2013-06-12 21:43:00,64.0,46.0,-100.00,NNW,343,4.0,10.0,52,0.00,,,0.00,63.000000,,2013-06-13 02:43:00,
2013-06-12 21:52:00,64.0,46.0,-100.00,NNW,343,4.0,10.0,52,0.00,,,0.00,63.000000,,2013-06-13 02:52:00,
2013-06-12 22:02:00,64.0,46.0,-100.00,NNW,343,4.0,10.0,52,0.00,,,0.00,63.000000,,2013-06-13 03:02:00,
2013-06-12 22:33:00,60.0,49.0,-100.00,NW,317,2.0,5.0,66,0.00,,,0.00,3.000000,,2013-06-13 03:33:00,
2013-06-12 22:43:00,60.0,49.0,-100.00,NW,317,2.0,5.0,66,0.00,,,0.00,3.000000,,2013-06-13 03:43:00,
2013-06-12 22:52:00,60.0,49.0,-100.00,NW,317,2.0,5.0,66,0.00,,,0.00,3.000000,,2013-06-13 03:52:00,
2013-06-12 23:01:00,60.0,49.0,-100.00,NW,317,2.0,5.0,66,0.00,,,0.00,3.000000,,2013-06-13 04:01:00,
2013-06-12 23:33:00,58.0,49.0,-100.00,NNW,334,3.0,5.0,72,0.00,,,0.00,0.000000,,2013-06-13 04:33:00,
2013-06-12 23:43:00,58.0,49.0,-100.00,NNW,334,3.0,5.0,72,0.00,,,0.00,0.000000,,2013-06-13 04:43:00,
2013-06-12 23:53:00,58.0,49.0,-100.00,NNW,334,3.0,5.0,72,0.00,,,0.00,0.000000,,2013-06-13 04:53:00,